sensor_id;sensor_type;location;lat;lon;timestamp;P1;durP1;ratioP1;P2;durP2;ratioP2
38208;SDS011;24016;52.102;11.584;2022-09-21T00:00:22;7.82;;;2.10;;
38208;SDS011;24016;52.102;11.584;2022-09-21T00:02:48;5.00;;;1.63;;
38208;SDS011;24016;52.102;11.584;2022-09-21T00:05:14;4.18;;;1.77;;
38208;SDS011;24016;52.102;11.584;2022-09-21T00:07:40;9.55;;;2.40;;
38208;SDS011;24016;52.102;11.584;2022-09-21T00:10:06;5.07;;;1.95;;
38208;SDS011;24016;52.102;11.584;2022-09-21T00:12:32;8.02;;;1.77;;
38208;SDS011;24016;52.102;11.584;2022-09-21T00:14:59;4.72;;;1.77;;
38208;SDS011;24016;52.102;11.584;2022-09-21T00:17:25;6.85;;;2.00;;
38208;SDS011;24016;52.102;11.584;2022-09-21T00:19:50;4.65;;;1.70;;
38208;SDS011;24016;52.102;11.584;2022-09-21T00:22:16;7.63;;;2.22;;
38208;SDS011;24016;52.102;11.584;2022-09-21T00:24:42;7.25;;;2.25;;
38208;SDS011;24016;52.102;11.584;2022-09-21T00:27:07;4.90;;;1.88;;
38208;SDS011;24016;52.102;11.584;2022-09-21T00:29:32;5.90;;;2.00;;
38208;SDS011;24016;52.102;11.584;2022-09-21T00:31:59;5.03;;;2.10;;
38208;SDS011;24016;52.102;11.584;2022-09-21T00:34:25;6.72;;;1.92;;
38208;SDS011;24016;52.102;11.584;2022-09-21T00:36:51;3.13;;;1.80;;
38208;SDS011;24016;52.102;11.584;2022-09-21T00:39:17;12.05;;;2.10;;
38208;SDS011;24016;52.102;11.584;2022-09-21T00:41:42;5.00;;;2.00;;
38208;SDS011;24016;52.102;11.584;2022-09-21T00:46:45;7.13;;;2.22;;
38208;SDS011;24016;52.102;11.584;2022-09-21T00:49:13;3.60;;;1.88;;
38208;SDS011;24016;52.102;11.584;2022-09-21T00:51:39;6.38;;;1.95;;
38208;SDS011;24016;52.102;11.584;2022-09-21T00:54:07;4.97;;;2.00;;
38208;SDS011;24016;52.102;11.584;2022-09-21T00:56:36;5.60;;;2.20;;
38208;SDS011;24016;52.102;11.584;2022-09-21T00:59:03;5.70;;;1.85;;
38208;SDS011;24016;52.102;11.584;2022-09-21T01:01:30;5.32;;;1.88;;
38208;SDS011;24016;52.102;11.584;2022-09-21T01:03:55;7.05;;;1.90;;
38208;SDS011;24016;52.102;11.584;2022-09-21T01:06:21;6.13;;;1.92;;
38208;SDS011;24016;52.102;11.584;2022-09-21T01:08:52;5.05;;;2.00;;
38208;SDS011;24016;52.102;11.584;2022-09-21T01:17:13;9.07;;;2.30;;
38208;SDS011;24016;52.102;11.584;2022-09-21T01:20:05;5.75;;;2.20;;
38208;SDS011;24016;52.102;11.584;2022-09-21T01:25:54;5.22;;;2.00;;
38208;SDS011;24016;52.102;11.584;2022-09-21T01:31:23;6.75;;;2.30;;
38208;SDS011;24016;52.102;11.584;2022-09-21T01:33:58;6.53;;;2.10;;
38208;SDS011;24016;52.102;11.584;2022-09-21T01:38:57;9.73;;;2.40;;
38208;SDS011;24016;52.102;11.584;2022-09-21T01:41:29;5.20;;;2.55;;
38208;SDS011;24016;52.102;11.584;2022-09-21T01:43:57;6.75;;;2.10;;
38208;SDS011;24016;52.102;11.584;2022-09-21T01:46:32;5.43;;;2.22;;
38208;SDS011;24016;52.102;11.584;2022-09-21T01:49:00;8.65;;;2.20;;
38208;SDS011;24016;52.102;11.584;2022-09-21T01:51:30;7.32;;;1.95;;
38208;SDS011;24016;52.102;11.584;2022-09-21T01:54:00;6.97;;;2.40;;
38208;SDS011;24016;52.102;11.584;2022-09-21T01:56:35;7.53;;;2.30;;
38208;SDS011;24016;52.102;11.584;2022-09-21T01:59:08;7.43;;;2.55;;
38208;SDS011;24016;52.102;11.584;2022-09-21T02:02:11;4.45;;;2.40;;
38208;SDS011;24016;52.102;11.584;2022-09-21T02:04:40;9.02;;;2.67;;
38208;SDS011;24016;52.102;11.584;2022-09-21T02:07:06;8.18;;;2.90;;
38208;SDS011;24016;52.102;11.584;2022-09-21T02:09:33;7.65;;;2.83;;
38208;SDS011;24016;52.102;11.584;2022-09-21T02:12:00;8.27;;;2.72;;
38208;SDS011;24016;52.102;11.584;2022-09-21T02:14:26;12.52;;;2.50;;
38208;SDS011;24016;52.102;11.584;2022-09-21T02:19:49;5.72;;;3.00;;
38208;SDS011;24016;52.102;11.584;2022-09-21T02:25:35;8.88;;;3.25;;
38208;SDS011;24016;52.102;11.584;2022-09-21T02:33:49;7.22;;;2.90;;
38208;SDS011;24016;52.102;11.584;2022-09-21T02:38:55;6.05;;;3.00;;
38208;SDS011;24016;52.102;11.584;2022-09-21T02:41:33;6.38;;;3.72;;
38208;SDS011;24016;52.102;11.584;2022-09-21T02:44:26;7.18;;;3.47;;
38208;SDS011;24016;52.102;11.584;2022-09-21T02:47:00;9.07;;;3.65;;
38208;SDS011;24016;52.102;11.584;2022-09-21T02:49:37;8.80;;;3.40;;
38208;SDS011;24016;52.102;11.584;2022-09-21T02:52:10;9.55;;;4.38;;
38208;SDS011;24016;52.102;11.584;2022-09-21T02:54:38;6.70;;;3.95;;
38208;SDS011;24016;52.102;11.584;2022-09-21T02:57:07;7.10;;;4.10;;
38208;SDS011;24016;52.102;11.584;2022-09-21T02:59:35;8.63;;;4.28;;
38208;SDS011;24016;52.102;11.584;2022-09-21T03:02:00;10.88;;;4.20;;
38208;SDS011;24016;52.102;11.584;2022-09-21T03:04:26;8.85;;;4.38;;
38208;SDS011;24016;52.102;11.584;2022-09-21T03:06:52;8.32;;;4.50;;
38208;SDS011;24016;52.102;11.584;2022-09-21T03:09:18;12.32;;;4.55;;
38208;SDS011;24016;52.102;11.584;2022-09-21T03:11:45;8.98;;;4.53;;
38208;SDS011;24016;52.102;11.584;2022-09-21T03:14:10;10.15;;;4.57;;
38208;SDS011;24016;52.102;11.584;2022-09-21T03:16:36;8.88;;;4.80;;
38208;SDS011;24016;52.102;11.584;2022-09-21T03:19:03;10.40;;;4.82;;
38208;SDS011;24016;52.102;11.584;2022-09-21T03:21:29;12.65;;;5.38;;
38208;SDS011;24016;52.102;11.584;2022-09-21T03:23:55;12.05;;;4.85;;
38208;SDS011;24016;52.102;11.584;2022-09-21T03:26:20;10.52;;;4.78;;
38208;SDS011;24016;52.102;11.584;2022-09-21T03:28:46;11.65;;;5.25;;
38208;SDS011;24016;52.102;11.584;2022-09-21T03:31:16;8.20;;;4.85;;
38208;SDS011;24016;52.102;11.584;2022-09-21T03:33:41;9.20;;;5.35;;
38208;SDS011;24016;52.102;11.584;2022-09-21T03:36:07;10.13;;;5.43;;
38208;SDS011;24016;52.102;11.584;2022-09-21T03:38:33;8.90;;;5.15;;
38208;SDS011;24016;52.102;11.584;2022-09-21T03:40:59;10.40;;;5.25;;
38208;SDS011;24016;52.102;11.584;2022-09-21T03:43:24;14.05;;;6.40;;
38208;SDS011;24016;52.102;11.584;2022-09-21T03:45:50;12.43;;;6.43;;
38208;SDS011;24016;52.102;11.584;2022-09-21T03:48:16;10.75;;;5.63;;
38208;SDS011;24016;52.102;11.584;2022-09-21T03:50:41;15.57;;;6.13;;
38208;SDS011;24016;52.102;11.584;2022-09-21T03:53:07;12.38;;;6.28;;
38208;SDS011;24016;52.102;11.584;2022-09-21T03:55:34;10.15;;;5.95;;
38208;SDS011;24016;52.102;11.584;2022-09-21T03:57:59;12.35;;;5.82;;
38208;SDS011;24016;52.102;11.584;2022-09-21T04:00:25;16.75;;;6.43;;
38208;SDS011;24016;52.102;11.584;2022-09-21T04:02:51;12.73;;;6.32;;
38208;SDS011;24016;52.102;11.584;2022-09-21T04:05:17;13.77;;;6.55;;
38208;SDS011;24016;52.102;11.584;2022-09-21T04:07:43;10.35;;;6.22;;
38208;SDS011;24016;52.102;11.584;2022-09-21T04:10:13;8.73;;;6.38;;
38208;SDS011;24016;52.102;11.584;2022-09-21T04:12:40;11.55;;;6.55;;
38208;SDS011;24016;52.102;11.584;2022-09-21T04:15:08;11.63;;;6.70;;
38208;SDS011;24016;52.102;11.584;2022-09-21T04:17:38;14.55;;;7.88;;
38208;SDS011;24016;52.102;11.584;2022-09-21T04:20:03;12.43;;;7.65;;
38208;SDS011;24016;52.102;11.584;2022-09-21T04:22:30;13.32;;;7.55;;
38208;SDS011;24016;52.102;11.584;2022-09-21T04:24:55;11.85;;;7.50;;
38208;SDS011;24016;52.102;11.584;2022-09-21T04:27:21;13.70;;;8.02;;
38208;SDS011;24016;52.102;11.584;2022-09-21T04:29:47;14.82;;;8.60;;
38208;SDS011;24016;52.102;11.584;2022-09-21T04:32:13;16.40;;;8.80;;
38208;SDS011;24016;52.102;11.584;2022-09-21T04:34:39;21.23;;;9.30;;
38208;SDS011;24016;52.102;11.584;2022-09-21T04:37:05;14.25;;;9.15;;
38208;SDS011;24016;52.102;11.584;2022-09-21T04:39:32;14.52;;;8.40;;
38208;SDS011;24016;52.102;11.584;2022-09-21T04:41:58;20.73;;;8.93;;
38208;SDS011;24016;52.102;11.584;2022-09-21T04:44:24;11.27;;;8.18;;
38208;SDS011;24016;52.102;11.584;2022-09-21T04:46:49;15.77;;;10.00;;
38208;SDS011;24016;52.102;11.584;2022-09-21T04:49:15;17.67;;;9.80;;
38208;SDS011;24016;52.102;11.584;2022-09-21T04:51:40;18.52;;;10.13;;
38208;SDS011;24016;52.102;11.584;2022-09-21T04:54:06;13.95;;;9.68;;
38208;SDS011;24016;52.102;11.584;2022-09-21T04:56:31;16.92;;;10.63;;
38208;SDS011;24016;52.102;11.584;2022-09-21T04:58:57;15.05;;;10.07;;
38208;SDS011;24016;52.102;11.584;2022-09-21T05:01:22;18.83;;;11.30;;
38208;SDS011;24016;52.102;11.584;2022-09-21T05:03:48;17.17;;;11.07;;
38208;SDS011;24016;52.102;11.584;2022-09-21T05:06:13;17.30;;;10.77;;
38208;SDS011;24016;52.102;11.584;2022-09-21T05:08:39;20.17;;;10.98;;
38208;SDS011;24016;52.102;11.584;2022-09-21T05:11:23;14.43;;;10.20;;
38208;SDS011;24016;52.102;11.584;2022-09-21T05:13:49;19.40;;;10.40;;
38208;SDS011;24016;52.102;11.584;2022-09-21T05:16:15;16.38;;;11.43;;
38208;SDS011;24016;52.102;11.584;2022-09-21T05:18:41;20.58;;;11.25;;
38208;SDS011;24016;52.102;11.584;2022-09-21T05:21:08;16.35;;;11.43;;
38208;SDS011;24016;52.102;11.584;2022-09-21T05:23:35;20.88;;;11.52;;
38208;SDS011;24016;52.102;11.584;2022-09-21T05:26:01;19.15;;;11.15;;
38208;SDS011;24016;52.102;11.584;2022-09-21T05:28:27;18.40;;;11.68;;
38208;SDS011;24016;52.102;11.584;2022-09-21T05:30:56;22.75;;;11.43;;
38208;SDS011;24016;52.102;11.584;2022-09-21T05:33:29;22.70;;;13.13;;
38208;SDS011;24016;52.102;11.584;2022-09-21T05:38:51;19.52;;;11.85;;
38208;SDS011;24016;52.102;11.584;2022-09-21T05:41:17;19.23;;;11.68;;
38208;SDS011;24016;52.102;11.584;2022-09-21T05:43:43;20.20;;;12.15;;
38208;SDS011;24016;52.102;11.584;2022-09-21T05:46:16;16.95;;;12.00;;
38208;SDS011;24016;52.102;11.584;2022-09-21T05:48:47;16.63;;;11.98;;
38208;SDS011;24016;52.102;11.584;2022-09-21T05:51:42;16.00;;;11.45;;
38208;SDS011;24016;52.102;11.584;2022-09-21T05:54:20;21.75;;;12.07;;
38208;SDS011;24016;52.102;11.584;2022-09-21T05:57:04;20.13;;;13.10;;
38208;SDS011;24016;52.102;11.584;2022-09-21T05:59:55;22.67;;;12.45;;
38208;SDS011;24016;52.102;11.584;2022-09-21T06:02:34;21.05;;;12.52;;
38208;SDS011;24016;52.102;11.584;2022-09-21T06:05:20;19.67;;;11.70;;
38208;SDS011;24016;52.102;11.584;2022-09-21T06:07:46;17.85;;;11.82;;
38208;SDS011;24016;52.102;11.584;2022-09-21T06:10:12;19.52;;;11.50;;
38208;SDS011;24016;52.102;11.584;2022-09-21T06:12:38;20.63;;;12.80;;
38208;SDS011;24016;52.102;11.584;2022-09-21T06:15:04;19.23;;;12.52;;
38208;SDS011;24016;52.102;11.584;2022-09-21T06:17:31;20.67;;;11.82;;
38208;SDS011;24016;52.102;11.584;2022-09-21T06:19:57;18.58;;;11.48;;
38208;SDS011;24016;52.102;11.584;2022-09-21T06:22:23;19.75;;;11.60;;
38208;SDS011;24016;52.102;11.584;2022-09-21T06:24:48;18.17;;;10.65;;
38208;SDS011;24016;52.102;11.584;2022-09-21T06:27:14;18.15;;;10.95;;
38208;SDS011;24016;52.102;11.584;2022-09-21T06:29:39;21.17;;;12.10;;
38208;SDS011;24016;52.102;11.584;2022-09-21T06:32:05;18.00;;;10.20;;
38208;SDS011;24016;52.102;11.584;2022-09-21T06:34:30;13.77;;;9.75;;
38208;SDS011;24016;52.102;11.584;2022-09-21T06:36:56;12.80;;;9.50;;
38208;SDS011;24016;52.102;11.584;2022-09-21T06:39:22;16.38;;;9.80;;
38208;SDS011;24016;52.102;11.584;2022-09-21T06:41:47;13.75;;;8.52;;
38208;SDS011;24016;52.102;11.584;2022-09-21T06:44:13;13.95;;;9.48;;
38208;SDS011;24016;52.102;11.584;2022-09-21T06:46:38;11.45;;;7.63;;
38208;SDS011;24016;52.102;11.584;2022-09-21T06:49:04;16.30;;;8.13;;
38208;SDS011;24016;52.102;11.584;2022-09-21T06:51:29;13.23;;;8.38;;
38208;SDS011;24016;52.102;11.584;2022-09-21T06:53:55;12.80;;;8.35;;
38208;SDS011;24016;52.102;11.584;2022-09-21T06:56:22;15.95;;;7.82;;
38208;SDS011;24016;52.102;11.584;2022-09-21T06:58:49;10.70;;;7.03;;
38208;SDS011;24016;52.102;11.584;2022-09-21T07:01:14;12.90;;;7.28;;
38208;SDS011;24016;52.102;11.584;2022-09-21T07:03:41;15.30;;;7.65;;
38208;SDS011;24016;52.102;11.584;2022-09-21T07:06:07;17.27;;;8.07;;
38208;SDS011;24016;52.102;11.584;2022-09-21T07:08:35;12.02;;;7.25;;
38208;SDS011;24016;52.102;11.584;2022-09-21T07:11:04;10.70;;;7.32;;
38208;SDS011;24016;52.102;11.584;2022-09-21T07:13:30;11.80;;;7.28;;
38208;SDS011;24016;52.102;11.584;2022-09-21T07:15:55;11.65;;;6.32;;
38208;SDS011;24016;52.102;11.584;2022-09-21T07:18:21;9.77;;;6.90;;
38208;SDS011;24016;52.102;11.584;2022-09-21T07:20:47;10.95;;;6.97;;
38208;SDS011;24016;52.102;11.584;2022-09-21T07:23:14;12.10;;;6.63;;
38208;SDS011;24016;52.102;11.584;2022-09-21T07:25:44;11.00;;;6.18;;
38208;SDS011;24016;52.102;11.584;2022-09-21T07:28:13;10.95;;;5.72;;
38208;SDS011;24016;52.102;11.584;2022-09-21T07:30:39;11.35;;;5.80;;
38208;SDS011;24016;52.102;11.584;2022-09-21T07:33:05;9.63;;;5.32;;
38208;SDS011;24016;52.102;11.584;2022-09-21T07:35:31;9.85;;;4.82;;
38208;SDS011;24016;52.102;11.584;2022-09-21T07:37:57;8.25;;;4.63;;
38208;SDS011;24016;52.102;11.584;2022-09-21T07:40:23;8.75;;;4.60;;
38208;SDS011;24016;52.102;11.584;2022-09-21T07:42:49;12.60;;;5.40;;
38208;SDS011;24016;52.102;11.584;2022-09-21T07:45:15;8.02;;;4.57;;
38208;SDS011;24016;52.102;11.584;2022-09-21T07:47:40;8.38;;;4.13;;
38208;SDS011;24016;52.102;11.584;2022-09-21T07:50:05;8.30;;;4.05;;
38208;SDS011;24016;52.102;11.584;2022-09-21T07:52:31;10.52;;;4.07;;
38208;SDS011;24016;52.102;11.584;2022-09-21T07:54:57;8.88;;;3.92;;
38208;SDS011;24016;52.102;11.584;2022-09-21T07:57:22;7.65;;;3.83;;
38208;SDS011;24016;52.102;11.584;2022-09-21T08:00:06;6.53;;;3.70;;
38208;SDS011;24016;52.102;11.584;2022-09-21T08:02:33;7.95;;;3.70;;
38208;SDS011;24016;52.102;11.584;2022-09-21T08:04:59;6.72;;;3.88;;
38208;SDS011;24016;52.102;11.584;2022-09-21T08:07:24;7.10;;;2.97;;
38208;SDS011;24016;52.102;11.584;2022-09-21T08:09:51;7.55;;;3.50;;
38208;SDS011;24016;52.102;11.584;2022-09-21T08:12:17;7.55;;;3.30;;
38208;SDS011;24016;52.102;11.584;2022-09-21T08:14:44;5.57;;;3.15;;
38208;SDS011;24016;52.102;11.584;2022-09-21T08:17:11;9.18;;;3.20;;
38208;SDS011;24016;52.102;11.584;2022-09-21T08:19:37;8.45;;;2.78;;
38208;SDS011;24016;52.102;11.584;2022-09-21T08:22:02;5.40;;;2.95;;
38208;SDS011;24016;52.102;11.584;2022-09-21T08:24:28;6.70;;;2.88;;
38208;SDS011;24016;52.102;11.584;2022-09-21T08:26:55;7.50;;;2.90;;
38208;SDS011;24016;52.102;11.584;2022-09-21T08:29:20;6.22;;;2.60;;
38208;SDS011;24016;52.102;11.584;2022-09-21T08:31:47;4.38;;;2.60;;
38208;SDS011;24016;52.102;11.584;2022-09-21T08:34:12;9.85;;;2.75;;
38208;SDS011;24016;52.102;11.584;2022-09-21T08:36:38;7.43;;;2.80;;
38208;SDS011;24016;52.102;11.584;2022-09-21T08:39:07;5.55;;;2.10;;
38208;SDS011;24016;52.102;11.584;2022-09-21T08:49:54;4.95;;;2.38;;
38208;SDS011;24016;52.102;11.584;2022-09-21T08:52:24;5.70;;;3.10;;
38208;SDS011;24016;52.102;11.584;2022-09-21T08:54:52;3.75;;;2.05;;
38208;SDS011;24016;52.102;11.584;2022-09-21T08:59:52;3.78;;;2.00;;
38208;SDS011;24016;52.102;11.584;2022-09-21T09:05:20;4.47;;;2.17;;
38208;SDS011;24016;52.102;11.584;2022-09-21T09:08:09;8.32;;;2.10;;
38208;SDS011;24016;52.102;11.584;2022-09-21T09:13:45;5.38;;;2.05;;
38208;SDS011;24016;52.102;11.584;2022-09-21T09:19:10;3.00;;;1.70;;
38208;SDS011;24016;52.102;11.584;2022-09-21T09:21:48;5.55;;;1.70;;
38208;SDS011;24016;52.102;11.584;2022-09-21T09:24:15;3.30;;;1.45;;
38208;SDS011;24016;52.102;11.584;2022-09-21T09:27:01;3.30;;;1.70;;
38208;SDS011;24016;52.102;11.584;2022-09-21T09:29:44;4.47;;;1.77;;
38208;SDS011;24016;52.102;11.584;2022-09-21T09:32:23;2.50;;;1.70;;
38208;SDS011;24016;52.102;11.584;2022-09-21T09:45:54;4.03;;;1.95;;
38208;SDS011;24016;52.102;11.584;2022-09-21T09:51:24;3.38;;;1.50;;
38208;SDS011;24016;52.102;11.584;2022-09-21T09:53:50;2.28;;;1.40;;
38208;SDS011;24016;52.102;11.584;2022-09-21T09:56:20;2.10;;;1.30;;
38208;SDS011;24016;52.102;11.584;2022-09-21T09:58:49;3.30;;;1.30;;
38208;SDS011;24016;52.102;11.584;2022-09-21T10:01:34;2.38;;;1.17;;
38208;SDS011;24016;52.102;11.584;2022-09-21T10:04:04;2.58;;;1.35;;
38208;SDS011;24016;52.102;11.584;2022-09-21T10:06:32;2.13;;;1.20;;
38208;SDS011;24016;52.102;11.584;2022-09-21T10:08:57;2.20;;;1.02;;
38208;SDS011;24016;52.102;11.584;2022-09-21T10:11:23;2.70;;;1.17;;
38208;SDS011;24016;52.102;11.584;2022-09-21T10:14:07;1.55;;;0.95;;
38208;SDS011;24016;52.102;11.584;2022-09-21T10:16:41;1.63;;;1.05;;
38208;SDS011;24016;52.102;11.584;2022-09-21T10:19:18;3.28;;;1.70;;
38208;SDS011;24016;52.102;11.584;2022-09-21T10:24:21;4.05;;;1.80;;
38208;SDS011;24016;52.102;11.584;2022-09-21T10:27:09;3.67;;;1.73;;
38208;SDS011;24016;52.102;11.584;2022-09-21T10:34:36;2.33;;;1.40;;
38208;SDS011;24016;52.102;11.584;2022-09-21T10:37:22;2.65;;;1.17;;
38208;SDS011;24016;52.102;11.584;2022-09-21T10:39:53;1.60;;;1.20;;
38208;SDS011;24016;52.102;11.584;2022-09-21T10:42:19;2.42;;;1.25;;
38208;SDS011;24016;52.102;11.584;2022-09-21T10:44:51;2.20;;;1.10;;
38208;SDS011;24016;52.102;11.584;2022-09-21T10:47:35;3.00;;;1.63;;
38208;SDS011;24016;52.102;11.584;2022-09-21T10:50:05;2.03;;;1.42;;
38208;SDS011;24016;52.102;11.584;2022-09-21T10:52:45;2.72;;;1.05;;
38208;SDS011;24016;52.102;11.584;2022-09-21T10:55:15;0.88;;;0.80;;
38208;SDS011;24016;52.102;11.584;2022-09-21T10:57:43;1.00;;;0.70;;
38208;SDS011;24016;52.102;11.584;2022-09-21T11:02:53;1.30;;;0.70;;
38208;SDS011;24016;52.102;11.584;2022-09-21T11:05:22;1.63;;;0.90;;
38208;SDS011;24016;52.102;11.584;2022-09-21T11:08:04;3.50;;;1.08;;
38208;SDS011;24016;52.102;11.584;2022-09-21T11:10:47;2.97;;;0.70;;
38208;SDS011;24016;52.102;11.584;2022-09-21T11:13:35;1.77;;;0.95;;
38208;SDS011;24016;52.102;11.584;2022-09-21T11:16:14;2.33;;;0.90;;
38208;SDS011;24016;52.102;11.584;2022-09-21T11:19:00;0.98;;;0.70;;
38208;SDS011;24016;52.102;11.584;2022-09-21T11:27:09;1.58;;;0.95;;
38208;SDS011;24016;52.102;11.584;2022-09-21T11:32:36;1.42;;;0.80;;
38208;SDS011;24016;52.102;11.584;2022-09-21T11:37:50;1.10;;;1.00;;
38208;SDS011;24016;52.102;11.584;2022-09-21T11:40:26;0.98;;;0.80;;
38208;SDS011;24016;52.102;11.584;2022-09-21T11:43:47;1.75;;;0.70;;
38208;SDS011;24016;52.102;11.584;2022-09-21T11:46:28;0.80;;;0.70;;
38208;SDS011;24016;52.102;11.584;2022-09-21T11:52:10;0.88;;;0.75;;
38208;SDS011;24016;52.102;11.584;2022-09-21T11:54:57;0.70;;;0.63;;
38208;SDS011;24016;52.102;11.584;2022-09-21T11:57:32;0.73;;;0.70;;
38208;SDS011;24016;52.102;11.584;2022-09-21T12:00:22;0.65;;;0.60;;
38208;SDS011;24016;52.102;11.584;2022-09-21T12:11:45;0.68;;;0.55;;
38208;SDS011;24016;52.102;11.584;2022-09-21T12:14:30;0.40;;;0.40;;
38208;SDS011;24016;52.102;11.584;2022-09-21T12:17:13;0.70;;;0.60;;
38208;SDS011;24016;52.102;11.584;2022-09-21T12:19:44;0.65;;;0.60;;
38208;SDS011;24016;52.102;11.584;2022-09-21T12:22:25;0.60;;;0.60;;
38208;SDS011;24016;52.102;11.584;2022-09-21T12:24:58;1.73;;;0.73;;
38208;SDS011;24016;52.102;11.584;2022-09-21T12:27:31;0.77;;;0.52;;
38208;SDS011;24016;52.102;11.584;2022-09-21T12:30:05;0.80;;;0.47;;
38208;SDS011;24016;52.102;11.584;2022-09-21T12:35:16;0.50;;;0.50;;
38208;SDS011;24016;52.102;11.584;2022-09-21T12:38:15;0.68;;;0.55;;
38208;SDS011;24016;52.102;11.584;2022-09-21T12:40:48;1.27;;;0.50;;
38208;SDS011;24016;52.102;11.584;2022-09-21T12:48:39;1.85;;;0.50;;
38208;SDS011;24016;52.102;11.584;2022-09-21T12:51:11;0.95;;;0.65;;
38208;SDS011;24016;52.102;11.584;2022-09-21T12:53:49;0.88;;;0.50;;
38208;SDS011;24016;52.102;11.584;2022-09-21T12:59:30;2.05;;;0.80;;
38208;SDS011;24016;52.102;11.584;2022-09-21T13:02:17;1.30;;;0.80;;
38208;SDS011;24016;52.102;11.584;2022-09-21T13:04:59;0.80;;;0.70;;
38208;SDS011;24016;52.102;11.584;2022-09-21T13:12:53;3.15;;;0.47;;
38208;SDS011;24016;52.102;11.584;2022-09-21T13:15:27;1.40;;;0.65;;
38208;SDS011;24016;52.102;11.584;2022-09-21T13:17:59;0.88;;;0.70;;
38208;SDS011;24016;52.102;11.584;2022-09-21T13:20:42;0.75;;;0.55;;
38208;SDS011;24016;52.102;11.584;2022-09-21T13:23:15;1.17;;;0.60;;
38208;SDS011;24016;52.102;11.584;2022-09-21T13:25:48;2.05;;;1.77;;
38208;SDS011;24016;52.102;11.584;2022-09-21T13:28:23;2.55;;;1.10;;
38208;SDS011;24016;52.102;11.584;2022-09-21T13:34:14;0.77;;;0.77;;
38208;SDS011;24016;52.102;11.584;2022-09-21T13:44:56;0.43;;;0.40;;
38208;SDS011;24016;52.102;11.584;2022-09-21T13:47:27;0.60;;;0.60;;
38208;SDS011;24016;52.102;11.584;2022-09-21T13:49:59;0.70;;;0.70;;
38208;SDS011;24016;52.102;11.584;2022-09-21T13:52:38;0.98;;;0.50;;
38208;SDS011;24016;52.102;11.584;2022-09-21T13:57:59;6.55;;;0.85;;
38208;SDS011;24016;52.102;11.584;2022-09-21T14:00:41;0.90;;;0.50;;
38208;SDS011;24016;52.102;11.584;2022-09-21T14:03:17;1.05;;;0.70;;
38208;SDS011;24016;52.102;11.584;2022-09-21T14:06:11;1.05;;;0.70;;
38208;SDS011;24016;52.102;11.584;2022-09-21T14:14:05;1.33;;;0.82;;
38208;SDS011;24016;52.102;11.584;2022-09-21T14:24:42;1.35;;;0.60;;
38208;SDS011;24016;52.102;11.584;2022-09-21T14:27:24;0.68;;;0.52;;
38208;SDS011;24016;52.102;11.584;2022-09-21T14:30:15;1.73;;;0.95;;
38208;SDS011;24016;52.102;11.584;2022-09-21T14:32:46;1.42;;;1.00;;
38208;SDS011;24016;52.102;11.584;2022-09-21T14:35:18;0.82;;;0.80;;
38208;SDS011;24016;52.102;11.584;2022-09-21T14:40:56;0.98;;;0.60;;
38208;SDS011;24016;52.102;11.584;2022-09-21T14:43:27;0.70;;;0.70;;
38208;SDS011;24016;52.102;11.584;2022-09-21T15:00:22;6.57;;;4.65;;
38208;SDS011;24016;52.102;11.584;2022-09-21T15:03:09;7.05;;;3.75;;
38208;SDS011;24016;52.102;11.584;2022-09-21T15:12:39;5.38;;;3.80;;
38208;SDS011;24016;52.102;11.584;2022-09-21T15:17:56;3.58;;;2.55;;
38208;SDS011;24016;52.102;11.584;2022-09-21T15:20:24;5.20;;;3.38;;
38208;SDS011;24016;52.102;11.584;2022-09-21T15:22:54;3.35;;;2.40;;
38208;SDS011;24016;52.102;11.584;2022-09-21T15:25:22;3.83;;;2.85;;
38208;SDS011;24016;52.102;11.584;2022-09-21T15:27:49;2.58;;;1.88;;
38208;SDS011;24016;52.102;11.584;2022-09-21T15:30:20;4.30;;;2.50;;
38208;SDS011;24016;52.102;11.584;2022-09-21T15:32:53;3.95;;;2.00;;
38208;SDS011;24016;52.102;11.584;2022-09-21T15:35:25;3.53;;;1.80;;
38208;SDS011;24016;52.102;11.584;2022-09-21T15:37:55;2.85;;;1.45;;
38208;SDS011;24016;52.102;11.584;2022-09-21T15:40:26;2.65;;;1.23;;
38208;SDS011;24016;52.102;11.584;2022-09-21T15:45:30;3.40;;;1.25;;
38208;SDS011;24016;52.102;11.584;2022-09-21T15:48:15;2.65;;;1.08;;
38208;SDS011;24016;52.102;11.584;2022-09-21T15:50:45;1.73;;;1.10;;
38208;SDS011;24016;52.102;11.584;2022-09-21T15:53:21;1.38;;;1.00;;
38208;SDS011;24016;52.102;11.584;2022-09-21T15:55:52;3.28;;;1.30;;
38208;SDS011;24016;52.102;11.584;2022-09-21T15:58:31;2.72;;;0.95;;
38208;SDS011;24016;52.102;11.584;2022-09-21T16:01:11;3.30;;;0.80;;
38208;SDS011;24016;52.102;11.584;2022-09-21T16:03:40;2.20;;;1.10;;
38208;SDS011;24016;52.102;11.584;2022-09-21T16:06:17;1.90;;;1.00;;
38208;SDS011;24016;52.102;11.584;2022-09-21T16:08:50;2.63;;;1.00;;
38208;SDS011;24016;52.102;11.584;2022-09-21T16:11:31;2.08;;;0.98;;
38208;SDS011;24016;52.102;11.584;2022-09-21T16:14:15;2.45;;;1.10;;
38208;SDS011;24016;52.102;11.584;2022-09-21T16:17:03;2.63;;;1.30;;
38208;SDS011;24016;52.102;11.584;2022-09-21T16:22:22;2.70;;;1.23;;
38208;SDS011;24016;52.102;11.584;2022-09-21T16:24:54;2.22;;;1.10;;
38208;SDS011;24016;52.102;11.584;2022-09-21T16:27:22;1.40;;;1.10;;
38208;SDS011;24016;52.102;11.584;2022-09-21T16:29:53;2.35;;;1.27;;
38208;SDS011;24016;52.102;11.584;2022-09-21T16:32:26;1.83;;;1.30;;
38208;SDS011;24016;52.102;11.584;2022-09-21T16:35:20;3.30;;;1.20;;
38208;SDS011;24016;52.102;11.584;2022-09-21T16:37:49;2.40;;;1.50;;
38208;SDS011;24016;52.102;11.584;2022-09-21T16:40:15;1.63;;;1.20;;
38208;SDS011;24016;52.102;11.584;2022-09-21T16:42:41;1.77;;;1.33;;
38208;SDS011;24016;52.102;11.584;2022-09-21T16:45:08;1.45;;;1.00;;
38208;SDS011;24016;52.102;11.584;2022-09-21T16:47:45;1.65;;;1.10;;
38208;SDS011;24016;52.102;11.584;2022-09-21T16:50:11;3.20;;;1.15;;
38208;SDS011;24016;52.102;11.584;2022-09-21T16:52:37;1.40;;;0.88;;
38208;SDS011;24016;52.102;11.584;2022-09-21T16:55:02;3.35;;;1.30;;
38208;SDS011;24016;52.102;11.584;2022-09-21T16:57:28;1.75;;;1.10;;
38208;SDS011;24016;52.102;11.584;2022-09-21T16:59:54;3.55;;;1.30;;
38208;SDS011;24016;52.102;11.584;2022-09-21T17:02:20;2.70;;;1.27;;
38208;SDS011;24016;52.102;11.584;2022-09-21T17:04:45;1.95;;;1.25;;
38208;SDS011;24016;52.102;11.584;2022-09-21T17:07:12;2.95;;;1.40;;
38208;SDS011;24016;52.102;11.584;2022-09-21T17:09:41;2.85;;;1.50;;
38208;SDS011;24016;52.102;11.584;2022-09-21T17:12:11;2.97;;;1.60;;
38208;SDS011;24016;52.102;11.584;2022-09-21T17:14:38;3.17;;;1.70;;
38208;SDS011;24016;52.102;11.584;2022-09-21T17:17:17;4.45;;;1.77;;
38208;SDS011;24016;52.102;11.584;2022-09-21T17:19:48;2.38;;;1.70;;
38208;SDS011;24016;52.102;11.584;2022-09-21T17:22:15;3.42;;;2.45;;
38208;SDS011;24016;52.102;11.584;2022-09-21T17:24:49;10.15;;;5.07;;
38208;SDS011;24016;52.102;11.584;2022-09-21T17:27:16;6.38;;;3.67;;
38208;SDS011;24016;52.102;11.584;2022-09-21T17:29:46;5.15;;;3.67;;
38208;SDS011;24016;52.102;11.584;2022-09-21T17:32:17;4.80;;;3.47;;
38208;SDS011;24016;52.102;11.584;2022-09-21T17:34:44;4.88;;;3.20;;
38208;SDS011;24016;52.102;11.584;2022-09-21T17:37:10;2.58;;;1.90;;
38208;SDS011;24016;52.102;11.584;2022-09-21T17:39:36;3.03;;;2.00;;
38208;SDS011;24016;52.102;11.584;2022-09-21T17:42:04;2.58;;;1.58;;
38208;SDS011;24016;52.102;11.584;2022-09-21T17:47:31;3.85;;;1.67;;
38208;SDS011;24016;52.102;11.584;2022-09-21T17:50:00;9.23;;;5.72;;